Alabama A and M, Alabama
Current Conditions -  °F | °C
As of 8:55 AM on Sunday 21 Dec 2014 (Local Time) from KMDQ Reporting Station
Scattered Clouds Scattered Clouds  
Wind Chill:   Ceiling: Unl
Heat Index:   Visibility: 10mi
Dew Point: -2°   Wind: 0mph
Humidity: 81%   Direction: NA
Pressure: 30.21"   Gusts: NA
Location:  34.7869°N, 86.5719°W
Report Text: KMDQ 211455Z AUTO 00000KT 10SM SCT033 01/M02 A3021 RMK AO2
Loading
Personal Weather Stations






























Interactive Weather Map New forecast layout! Learn more

10-Day Weather Forecast

Advertisements
Track Severe Weather on mobile